Latest Coastal Weather Observations for Gannett Cay

IDQ60701

Issued at 3:31 pm EST Monday 22 December 2014 (issued every 10 minutes, with the page automatically refreshed every 10 minutes)

About coastal observations | Map of coastal stations | Coastal observations for QLD | Marine services | Other Formats
Station Details ID: 200831 Name: GANNET CAY Lat: -21.98 Lon: 152.47 Height: 2.3 m
Data from the previous 72 hours. | See also: Recent months for locations in Queensland
Date/Time
EST
Temp

°C
Wind Pressure Rain
since 9am
mm
Weather Cloud Vis
km
Sea
Height
m
Swell
Dir
 
Speed
knots
Gust
knots
hPa Trend Height
m
Period
s
Dir
22/03:30pm 26.3 SSE 23 26 1011.6 - - - - - - - - -
22/03:29pm 26.5 SSE 23 24 1011.7 - - - - - - - - -
22/03:00pm 26.4 SSE 24 28 1011.7 - - - - - - - - -
22/02:30pm 26.4 SSE 21 25 1012.1 - - - - - - - - -
22/02:29pm 26.3 SSE 21 - 1012.2 - - - - - - - - -
22/02:00pm 26.2 SSE 23 26 1012.4 - - - - - - - - -
22/01:30pm 26.4 SSE 22 25 1012.6 - - - - - - - - -
22/01:29pm 26.4 SSE 22 - 1012.7 - - - - - - - - -
22/01:00pm 26.4 SSE 21 26 1012.9 - - - - - - - - -
22/12:30pm 26.2 SSE 20 23 1013.2 - - - - - - - - -
22/12:29pm 26.2 SSE 19 - 1013.3 - - - - - - - - -
22/12:00pm 26.1 SSE 19 22 1013.3 - - - - - - - - -
22/11:30am 26.2 SE 20 29 1013.6 - - - - - - - - -
22/11:29am 26.2 SE 20 - 1013.7 - - - - - - - - -
22/11:00am 26.3 SE 21 24 1013.7 - - - - - - - - -
22/10:30am 26.3 SE 19 22 1013.8 - - - - - - - - -
22/10:29am 26.3 SE 20 - 1013.9 - - - - - - - - -
22/10:00am 26.1 SE 20 22 1013.9 - - - - - - - - -
22/09:30am 26.2 SE 19 22 1013.8 - - - - - - - - -
22/09:29am 26.2 SE 19 - 1013.9 - - - - - - - - -
22/09:00am 25.8 SE 19 23 1013.9 - - - - - - - - -
22/08:30am 25.7 SE 17 21 1014.1 - - - - - - - - -
22/08:29am 25.7 SE 17 - 1014.2 - - - - - - - - -
22/08:00am 24.9 ESE 20 24 1014.1 - - - - - - - - -
22/07:58am 24.9 ESE 20 24 1014.1 - - - - - - - - -
22/07:30am 25.7 SSE 14 18 1013.8 - - - - - - - - -
22/07:29am 25.7 SSE 14 - 1013.9 - - - - - - - - -
22/07:00am 25.5 SE 15 18 1013.5 - - - - - - - - -
22/06:30am 25.5 SE 17 20 1013.3 - - - - - - - - -
22/06:29am 25.4 SE 17 - 1013.4 - - - - - - - - -
22/06:00am 25.4 SE 16 21 1013.1 - - - - - - - - -
22/05:30am 25.2 SE 18 21 1012.5 - - - - - - - - -
22/05:29am 25.3 SE 18 - 1012.6 - - - - - - - - -
22/05:00am 25.1 SE 17 22 1012.3 - - - - - - - - -
22/04:30am 25.2 SE 17 20 1012.1 - - - - - - - - -
22/04:29am 25.3 SE 17 - 1012.2 - - - - - - - - -
22/04:00am 25.2 ESE 16 19 1012.2 - - - - - - - - -
22/03:30am 25.3 ESE 14 17 1012.1 - - - - - - - - -
22/03:29am 25.2 ESE 14 - 1012.2 - - - - - - - - -
22/03:00am 25.4 SE 16 19 1012.0 - - - - - - - - -
22/02:30am 25.3 ESE 19 22 1012.2 - - - - - - - - -
22/02:29am 25.4 SE 19 - 1012.3 - - - - - - - - -
22/02:00am 25.4 SE 20 23 1012.2 - - - - - - - - -
22/01:30am 25.5 ESE 18 22 1012.8 - - - - - - - - -
22/01:29am 25.6 ESE 19 - 1012.9 - - - - - - - - -
22/01:00am 25.6 ESE 19 22 1013.2 - - - - - - - - -
22/12:30am 25.7 ESE 19 22 1013.3 - - - - - - - - -
22/12:29am 25.8 ESE 19 - 1013.4 - - - - - - - - -
22/12:00am 25.8 ESE 20 23 1013.6 - - - - - - - - -
 
Date/Time
EST
Temp

°C
Wind Pressure Rain
since 9am
mm
Weather Cloud Vis
km
Sea
Height
m
Swell
Dir
 
Speed
knots
Gust
knots
hPa Trend Height
m
Period
s
Dir
21/11:30pm 25.8 ESE 18 22 1014.0 - - - - - - - - -
21/11:29pm 25.9 ESE 18 - 1014.1 - - - - - - - - -
21/11:00pm 25.9 ESE 20 23 1014.4 - - - - - - - - -
21/10:30pm 26.0 ESE 19 22 1014.5 - - - - - - - - -
21/10:29pm 25.9 ESE 19 - 1014.6 - - - - - - - - -
21/10:00pm 26.1 ESE 20 23 1014.5 - - - - - - - - -
21/09:30pm 26.0 ESE 20 24 1014.5 - - - - - - - - -
21/09:29pm 26.0 ESE 20 - 1014.6 - - - - - - - - -
21/09:00pm 26.0 ESE 21 24 1014.3 - - - - - - - - -
21/08:30pm 26.0 ESE 20 22 1014.2 - - - - - - - - -
21/08:29pm 26.0 ESE 20 - 1014.3 - - - - - - - - -
21/08:00pm 26.1 SE 21 23 1014.0 - - - - - - - - -
21/07:30pm 25.9 SE 19 22 1014.0 - - - - - - - - -
21/07:29pm 25.9 SE 19 - 1014.1 - - - - - - - - -
21/07:00pm 26.1 SE 19 22 1013.7 - - - - - - - - -
21/06:30pm 26.2 SE 19 21 1013.5 - - - - - - - - -
21/06:29pm 26.2 SE 19 - 1013.6 - - - - - - - - -
21/06:00pm 26.5 SE 17 20 1013.5 - - - - - - - - -
21/05:30pm 26.6 SE 18 22 1013.0 - - - - - - - - -
21/05:29pm 26.5 SE 18 - 1013.1 - - - - - - - - -
21/05:00pm 26.4 SE 15 17 1012.9 - - - - - - - - -
21/04:30pm 26.7 SE 15 17 1012.7 - - - - - - - - -
21/04:29pm 26.7 SE 15 - 1012.8 - - - - - - - - -
21/04:00pm 26.7 SE 15 18 1012.8 - - - - - - - - -
21/03:30pm 27.1 SE 15 17 1012.9 - - - - - - - - -
21/03:29pm 27.0 SE 15 - 1013.0 - - - - - - - - -
21/03:00pm 26.9 SE 15 17 1013.0 - - - - - - - - -
21/02:30pm 26.9 SE 15 18 1013.1 - - - - - - - - -
21/02:29pm 27.0 SE 15 - 1013.2 - - - - - - - - -
21/02:00pm 27.0 SE 15 17 1013.6 - - - - - - - - -
21/01:30pm 27.1 SE 16 18 1013.6 - - - - - - - - -
21/01:29pm 27.0 SE 16 - 1013.8 - - - - - - - - -
21/01:00pm 27.0 SE 15 17 1013.9 - - - - - - - - -
21/12:30pm 26.8 SE 16 18 1014.0 - - - - - - - - -
21/12:29pm 26.9 SE 16 - 1014.1 - - - - - - - - -
21/12:00pm 26.8 SE 16 18 1014.3 - - - - - - - - -
21/11:30am 26.8 SE 16 18 1014.4 - - - - - - - - -
21/11:29am 26.8 SE 16 - 1014.5 - - - - - - - - -
21/11:00am 26.8 ESE 16 18 1014.4 - - - - - - - - -
21/10:30am 26.7 ESE 15 17 1014.4 - - - - - - - - -
21/10:29am 26.7 ESE 16 - 1014.6 - - - - - - - - -
21/10:00am 26.7 ESE 16 18 1014.4 - - - - - - - - -
21/09:30am 26.8 ESE 15 18 1014.5 - - - - - - - - -
21/09:29am 26.7 ESE 16 - 1014.6 - - - - - - - - -
21/09:00am 26.8 ESE 17 19 1014.4 - - - - - - - - -
21/08:30am 26.8 ESE 16 19 1014.2 - - - - - - - - -
21/08:29am 26.8 ESE 16 - 1014.3 - - - - - - - - -
21/08:00am 26.7 ESE 16 18 1014.2 - - - - - - - - -
21/07:30am 26.7 ESE 17 19 1014.0 - - - - - - - - -
21/07:29am 26.7 ESE 17 - 1014.1 - - - - - - - - -
21/07:00am 26.7 ESE 15 18 1013.8 - - - - - - - - -
21/06:30am 26.4 E 15 19 1013.5 - - - - - - - - -
21/06:29am 26.6 E 14 - 1013.6 - - - - - - - - -
21/06:00am 26.4 E 16 19 1013.0 - - - - - - - - -
21/05:30am 26.4 E 16 19 1012.6 - - - - - - - - -
21/05:29am 26.4 E 17 - 1012.7 - - - - - - - - -
21/05:00am 26.3 E 17 20 1012.0 - - - - - - - - -
21/04:30am 26.3 E 18 22 1011.8 - - - - - - - - -
21/04:29am 26.4 E 18 - 1011.9 - - - - - - - - -
21/04:00am 26.3 E 19 22 1011.6 - - - - - - - - -
21/03:30am 26.2 E 19 22 1011.6 - - - - - - - - -
21/03:29am 26.3 E 19 - 1011.7 - - - - - - - - -
21/03:00am 26.3 E 18 21 1011.6 - - - - - - - - -
21/02:30am 26.4 E 19 22 1011.6 - - - - - - - - -
21/02:29am 26.4 E 19 - 1011.7 - - - - - - - - -
21/02:00am 26.3 E 19 22 1011.8 - - - - - - - - -
21/01:30am 26.4 E 20 23 1012.0 - - - - - - - - -
21/01:29am 26.4 E 19 - 1012.1 - - - - - - - - -
21/01:00am 26.4 E 18 21 1012.3 - - - - - - - - -
21/12:30am 26.4 E 18 20 1012.5 - - - - - - - - -
21/12:29am 26.4 E 18 - 1012.6 - - - - - - - - -
21/12:00am 26.5 E 19 22 1012.7 - - - - - - - - -
 
Date/Time
EST
Temp

°C
Wind Pressure Rain
since 9am
mm
Weather Cloud Vis
km
Sea
Height
m
Swell
Dir
 
Speed
knots
Gust
knots
hPa Trend Height
m
Period
s
Dir
20/11:30pm 26.6 E 20 22 1012.9 - - - - - - - - -
20/11:29pm 26.6 E 20 - 1013.0 - - - - - - - - -
20/11:00pm 26.6 E 19 22 1013.1 - - - - - - - - -
20/10:30pm 26.5 ESE 19 22 1013.6 - - - - - - - - -
20/10:29pm 26.4 ESE 19 - 1013.8 - - - - - - - - -
20/10:00pm 26.5 ESE 19 22 1013.8 - - - - - - - - -
20/09:30pm 26.3 ESE 19 21 1013.6 - - - - - - - - -
20/09:29pm 26.4 ESE 19 - 1013.6 - - - - - - - - -
20/09:00pm 26.3 SE 20 22 1013.3 - - - - - - - - -
20/08:30pm 26.2 SE 20 22 1013.1 - - - - - - - - -
20/08:29pm 26.2 SE 20 - 1013.1 - - - - - - - - -
20/08:00pm 26.2 SE 18 22 1012.8 - - - - - - - - -
20/07:30pm 26.3 SE 19 22 1012.5 - - - - - - - - -
20/07:29pm 26.4 SE 19 - 1012.6 - - - - - - - - -
20/07:00pm 26.3 SE 20 22 1012.3 - - - - - - - - -
20/06:30pm 26.4 SE 19 21 1011.8 - - - - - - - - -
20/06:29pm 26.3 SE 19 - 1011.9 - - - - - - - - -
20/06:00pm 26.7 SE 19 21 1011.4 - - - - - - - - -
20/05:30pm 26.9 SE 18 20 1011.2 - - - - - - - - -
20/05:29pm 26.8 SE 18 - 1011.3 - - - - - - - - -
20/05:00pm 26.6 SE 18 20 1010.8 - - - - - - - - -
20/04:30pm 27.0 SE 19 21 1010.5 - - - - - - - - -
20/04:29pm 27.0 SE 19 - 1010.6 - - - - - - - - -
20/04:00pm 27.0 SE 19 21 1010.3 - - - - - - - - -
20/03:30pm 27.0 SE 19 21 1010.3 - - - - - - - - -
20/03:29pm 27.1 SE 19 - 1010.4 - - - - - - - - -
20/03:00pm 26.9 SE 18 20 1010.5 - - - - - - - - -
20/02:30pm 27.0 SSE 17 19 1010.6 - - - - - - - - -
20/02:29pm 27.0 SSE 17 - 1010.7 - - - - - - - - -
20/02:00pm 26.9 SE 17 19 1010.8 - - - - - - - - -
20/01:30pm 26.9 SSE 16 19 1011.3 - - - - - - - - -
20/01:29pm 26.8 SSE 16 - 1011.4 - - - - - - - - -
20/01:00pm 26.6 SE 16 18 1011.5 - - - - - - - - -
20/12:30pm 26.5 SSE 16 18 1011.8 - - - - - - - - -
20/12:29pm 26.5 SSE 16 - 1011.9 - - - - - - - - -
20/12:00pm 26.3 SSE 15 17 1012.3 - - - - - - - - -
20/11:30am 26.3 SSE 14 17 1012.6 - - - - - - - - -
20/11:29am 26.3 SSE 15 - 1012.7 - - - - - - - - -
20/11:00am 26.4 SE 14 16 1012.7 - - - - - - - - -
20/10:30am 26.3 SE 15 16 1013.0 - - - - - - - - -
20/10:29am 26.2 SE 15 - 1013.1 - - - - - - - - -
20/10:00am 26.2 SSE 15 17 1012.9 - - - - - - - - -
20/09:30am 26.2 SSE 13 15 1012.9 - - - - - - - - -
20/09:29am 26.2 SSE 13 - 1013.0 - - - - - - - - -
20/09:00am 26.1 SSE 13 15 1012.8 - - - - - - - - -
20/08:30am 26.3 SSE 12 13 1012.6 - - - - - - - - -
20/08:29am 26.3 SSE 12 - 1012.6 - - - - - - - - -
20/08:00am 26.5 SSE 9 11 1012.4 - - - - - - - - -
20/07:30am 26.4 SSE 9 11 1012.2 - - - - - - - - -
20/07:29am 26.4 SSE 9 - 1012.3 - - - - - - - - -
20/07:00am 26.1 SSE 9 11 1012.0 - - - - - - - - -
20/06:30am 26.0 SSE 8 10 1011.7 - - - - - - - - -
20/06:29am 26.0 SSE 8 - 1011.8 - - - - - - - - -
20/06:00am 25.7 SSE 6 7 1011.5 - - - - - - - - -
20/05:30am 25.5 SE 5 7 1011.1 - - - - - - - - -
20/05:29am 25.5 SE 4 - 1011.1 - - - - - - - - -
20/05:00am 25.5 SSE 4 6 1010.7 - - - - - - - - -
20/04:30am 25.5 SE 3 5 1010.4 - - - - - - - - -
20/04:29am 25.5 SSE 3 - 1010.5 - - - - - - - - -
20/04:00am 25.4 SE 2 4 1010.0 - - - - - - - - -
20/03:30am 25.5 SSE 5 6 1010.0 - - - - - - - - -
20/03:29am 25.4 SSE 5 - 1010.1 - - - - - - - - -
20/03:00am 25.5 S 5 6 1010.2 - - - - - - - - -
20/02:30am 25.6 S 5 6 1010.3 - - - - - - - - -
20/02:29am 25.5 S 5 - 1010.4 - - - - - - - - -
20/02:00am 25.6 SE 5 6 1010.4 - - - - - - - - -
20/01:30am 25.6 SE 6 7 1010.6 - - - - - - - - -
20/01:29am 25.6 SE 6 - 1010.7 - - - - - - - - -
20/01:00am 25.7 SE 5 6 1010.9 - - - - - - - - -
20/12:30am 25.8 E 3 4 1011.2 - - - - - - - - -
20/12:29am 25.8 E 3 - 1011.3 - - - - - - - - -
20/12:00am 26.0 SE 4 5 1011.6 - - - - - - - - -
 
Date/Time
EST
Temp

°C
Wind Pressure Rain
since 9am
mm
Weather Cloud Vis
km
Sea
Height
m
Swell
Dir
 
Speed
knots
Gust
knots
hPa Trend Height
m
Period
s
Dir
19/11:30pm 26.2 SSE 6 8 1012.1 - - - - - - - - -
19/11:29pm 26.3 SSE 6 - 1012.2 - - - - - - - - -
19/11:00pm 26.4 SSE 5 5 1012.3 - - - - - - - - -
19/10:30pm 26.5 S 5 6 1012.5 - - - - - - - - -
19/10:29pm 26.4 S 5 - 1012.6 - - - - - - - - -
19/10:00pm 26.4 S 4 5 1012.6 - - - - - - - - -
19/09:30pm 26.5 CALM 0 0 1012.6 - - - - - - - - -
19/09:29pm 26.5 CALM 0 - 1012.7 - - - - - - - - -
19/09:00pm 26.6 ENE 2 4 1012.3 - - - - - - - - -
19/08:30pm 26.6 WSW 3 4 1012.2 - - - - - - - - -
19/08:29pm 26.6 WSW 3 - 1012.2 - - - - - - - - -
19/08:00pm 26.6 SSW 4 5 1011.9 - - - - - - - - -
19/07:30pm 26.6 E 3 5 1011.5 - - - - - - - - -
19/07:29pm 26.6 ENE 3 - 1011.6 - - - - - - - - -
19/07:00pm 26.7 SSE 3 3 1011.3 - - - - - - - - -
19/06:30pm 26.7 W 3 4 1011.0 - - - - - - - - -
19/06:29pm 26.7 W 3 - 1011.1 - - - - - - - - -
19/06:00pm 26.8 WNW 4 5 1010.9 - - - - - - - - -
19/05:30pm 26.7 N 4 5 1010.8 - - - - - - - - -
19/05:29pm 26.8 N 4 - 1010.9 - - - - - - - - -
19/05:00pm 26.9 N 3 4 1010.4 - - - - - - - - -
19/04:30pm 26.8 NNW 4 5 1010.3 - - - - - - - - -
19/04:29pm 26.8 NNW 4 - 1010.4 - - - - - - - - -
19/04:00pm 27.0 NW 5 6 1010.5 - - - - - - - - -

Other Formats:

Comma delimited format used in spreadsheet applications
http://www.bom.gov.au/fwo/IDQ60701/IDQ60701.94379.axf

JavaScript Object Notation format (JSON) in row-major order
http://www.bom.gov.au/fwo/IDQ60701/IDQ60701.94379.json